createdAt,value
2023-03-18T00:00:46.436Z,8.30
2023-03-18T00:03:14.037Z,7.90
2023-03-18T00:05:42.084Z,8.57
2023-03-18T00:08:09.604Z,7.80
2023-03-18T00:10:36.974Z,8.20
2023-03-18T00:13:07.257Z,7.65
2023-03-18T00:15:34.697Z,7.82
2023-03-18T00:18:02.077Z,8.38
2023-03-18T00:20:38.481Z,8.88
2023-03-18T00:23:08.585Z,8.30
2023-03-18T00:25:36.831Z,8.43
2023-03-18T00:28:05.170Z,8.43
2023-03-18T00:30:33.083Z,7.95
2023-03-18T00:33:00.542Z,8.63
2023-03-18T00:35:28.200Z,8.18
2023-03-18T00:37:55.627Z,7.55
2023-03-18T00:40:30.135Z,7.55
2023-03-18T00:43:07.716Z,7.90
2023-03-18T00:45:38.798Z,7.90
2023-03-18T00:48:07.577Z,8.35
2023-03-18T00:50:36.111Z,7.75
2023-03-18T00:53:03.895Z,8.30
2023-03-18T00:55:31.318Z,8.20
2023-03-18T00:57:58.785Z,8.13
2023-03-18T01:00:26.348Z,8.40
2023-03-18T01:02:54.235Z,8.02
2023-03-18T01:05:22.992Z,8.48
2023-03-18T01:07:50.377Z,8.65
2023-03-18T01:10:17.724Z,8.32
2023-03-18T01:12:47.179Z,8.50
2023-03-18T01:15:17.641Z,8.23
2023-03-18T01:17:46.022Z,7.70
2023-03-18T01:20:17.056Z,7.75
2023-03-18T01:22:45.471Z,7.85
2023-03-18T01:25:15.797Z,8.27
2023-03-18T01:27:45.369Z,7.47
2023-03-18T01:30:13.468Z,6.90
2023-03-18T01:32:43.803Z,7.78
2023-03-18T01:35:12.416Z,7.15
2023-03-18T01:37:46.736Z,7.20
2023-03-18T01:40:14.631Z,7.18
2023-03-18T01:42:42.861Z,7.13
2023-03-18T01:45:19.592Z,7.22
2023-03-18T01:47:49.832Z,6.78
2023-03-18T01:50:30.965Z,6.88
2023-03-18T01:53:10.282Z,7.03
2023-03-18T01:55:38.158Z,7.00
2023-03-18T01:58:21.309Z,6.65
2023-03-18T02:00:55.453Z,6.50
2023-03-18T02:03:22.864Z,6.72
2023-03-18T02:05:50.396Z,6.70
2023-03-18T02:08:18.375Z,6.90
2023-03-18T02:10:47.121Z,6.55
2023-03-18T02:13:15.100Z,6.28
2023-03-18T02:15:56.670Z,6.82
2023-03-18T02:18:28.420Z,6.85
2023-03-18T02:21:20.884Z,6.50
2023-03-18T02:24:27.205Z,6.38
2023-03-18T02:27:15.942Z,6.53
2023-03-18T02:29:43.992Z,5.80
2023-03-18T02:32:16.609Z,6.22
2023-03-18T02:34:44.047Z,5.95
2023-03-18T02:37:11.707Z,6.22
2023-03-18T02:39:41.663Z,5.85
2023-03-18T02:42:12.823Z,6.30
2023-03-18T02:44:45.112Z,5.65
2023-03-18T02:47:38.327Z,5.90
2023-03-18T02:50:05.928Z,5.63
2023-03-18T02:52:33.987Z,5.60
2023-03-18T02:55:01.781Z,4.80
2023-03-18T02:57:30.439Z,5.22
2023-03-18T02:59:58.425Z,5.47
2023-03-18T03:02:26.329Z,5.05
2023-03-18T03:04:53.979Z,4.93
2023-03-18T03:07:21.399Z,5.18
2023-03-18T03:09:53.030Z,4.93
2023-03-18T03:12:21.158Z,4.75
2023-03-18T03:14:52.695Z,4.65
2023-03-18T03:17:20.651Z,4.82
2023-03-18T03:19:48.021Z,4.40
2023-03-18T03:22:17.425Z,4.50
2023-03-18T03:24:47.004Z,4.40
2023-03-18T03:27:14.835Z,4.40
2023-03-18T03:29:42.327Z,4.35
2023-03-18T03:32:10.007Z,4.28
2023-03-18T03:34:37.541Z,4.30
2023-03-18T03:37:05.825Z,4.18
2023-03-18T03:39:33.913Z,3.92
2023-03-18T03:42:01.249Z,4.65
2023-03-18T03:44:28.593Z,4.35
2023-03-18T03:46:56.005Z,4.90
2023-03-18T03:49:24.220Z,4.32
2023-03-18T03:51:51.511Z,4.30
2023-03-18T03:54:19.992Z,4.22
2023-03-18T03:56:47.931Z,4.60
2023-03-18T03:59:15.792Z,4.20
2023-03-18T04:02:23.687Z,4.15
2023-03-18T04:04:51.673Z,4.13
2023-03-18T04:07:27.084Z,4.35
2023-03-18T04:09:55.980Z,3.85
2023-03-18T04:12:23.362Z,4.63
2023-03-18T04:14:56.520Z,3.92
2023-03-18T04:17:23.889Z,4.13
2023-03-18T04:19:51.193Z,3.47
2023-03-18T04:22:18.860Z,4.22
2023-03-18T04:24:46.316Z,4.03
2023-03-18T04:27:13.679Z,4.65
2023-03-18T04:29:41.093Z,4.53
2023-03-18T04:32:08.458Z,4.93
2023-03-18T04:34:38.521Z,4.60
2023-03-18T04:37:06.780Z,4.15
2023-03-18T04:39:36.143Z,4.30
2023-03-18T04:42:03.658Z,4.30
2023-03-18T04:44:31.752Z,4.38
2023-03-18T04:47:00.851Z,4.13
2023-03-18T04:49:28.332Z,4.25
2023-03-18T04:51:56.322Z,3.47
2023-03-18T04:54:30.058Z,4.20
2023-03-18T04:57:00.848Z,4.30
2023-03-18T04:59:30.339Z,3.90
2023-03-18T05:01:59.761Z,3.53
2023-03-18T05:04:27.512Z,3.88
2023-03-18T05:06:54.922Z,3.78
2023-03-18T05:09:29.147Z,3.88
2023-03-18T05:11:56.813Z,3.13
2023-03-18T05:14:32.072Z,3.38
2023-03-18T05:17:01.765Z,3.90
2023-03-18T05:19:30.622Z,3.50
2023-03-18T05:22:06.619Z,3.72
2023-03-18T05:24:34.857Z,3.70
2023-03-18T05:27:03.576Z,4.07
2023-03-18T05:29:38.466Z,3.90
2023-03-18T05:32:20.220Z,4.50
2023-03-18T05:34:52.755Z,4.35
2023-03-18T05:37:20.385Z,4.20
2023-03-18T05:39:57.797Z,3.80
2023-03-18T05:42:25.913Z,3.95
2023-03-18T05:44:54.658Z,3.85
2023-03-18T05:47:23.884Z,3.75
2023-03-18T05:50:10.681Z,3.75
2023-03-18T05:52:39.105Z,4.03
2023-03-18T05:55:13.935Z,3.90
2023-03-18T05:57:43.913Z,3.75
2023-03-18T06:00:13.758Z,3.65
2023-03-18T06:02:44.876Z,3.40
2023-03-18T06:05:13.781Z,3.45
2023-03-18T06:07:41.114Z,3.42
2023-03-18T06:10:09.145Z,3.10
2023-03-18T06:12:36.470Z,3.63
2023-03-18T06:15:06.479Z,3.33
2023-03-18T06:17:34.122Z,3.50
2023-03-18T06:20:01.403Z,5.63
2023-03-18T06:22:28.738Z,6.68
2023-03-18T06:24:56.503Z,6.25
2023-03-18T06:27:23.951Z,5.40
2023-03-18T06:29:56.036Z,4.20
2023-03-18T06:32:23.707Z,3.88
2023-03-18T06:34:52.519Z,4.07
2023-03-18T06:37:20.998Z,3.72
2023-03-18T06:39:50.017Z,3.53
2023-03-18T06:42:18.125Z,3.88
2023-03-18T06:45:17.892Z,5.65
2023-03-18T06:47:55.252Z,5.65
2023-03-18T06:50:24.327Z,5.45
2023-03-18T06:52:51.722Z,6.05
2023-03-18T06:55:26.104Z,5.25
2023-03-18T06:57:53.626Z,5.70
2023-03-18T07:00:25.983Z,8.40
2023-03-18T07:02:54.202Z,5.70
2023-03-18T07:05:26.487Z,4.38
2023-03-18T07:07:54.514Z,3.88
2023-03-18T07:10:23.940Z,4.45
2023-03-18T07:12:52.979Z,4.10
2023-03-18T07:15:21.638Z,4.10
2023-03-18T07:17:51.010Z,3.88
2023-03-18T07:20:19.550Z,4.82
2023-03-18T07:22:46.933Z,4.18
2023-03-18T07:25:14.362Z,4.65
2023-03-18T07:27:42.428Z,4.10
2023-03-18T07:30:10.366Z,4.20
2023-03-18T07:32:38.550Z,3.97
2023-03-18T07:35:06.600Z,3.55
2023-03-18T07:37:34.349Z,3.90
2023-03-18T07:40:01.870Z,3.90
2023-03-18T07:42:29.170Z,3.80
2023-03-18T07:44:58.078Z,3.53
2023-03-18T07:47:25.369Z,3.28
2023-03-18T07:49:52.845Z,3.83
2023-03-18T07:52:20.238Z,4.03
2023-03-18T07:54:47.573Z,3.88
2023-03-18T07:57:14.902Z,3.83
2023-03-18T07:59:42.260Z,3.83
2023-03-18T08:02:13.914Z,3.67
2023-03-18T08:04:42.814Z,3.58
2023-03-18T08:07:10.539Z,3.70
2023-03-18T08:09:38.377Z,3.72
2023-03-18T08:12:06.022Z,3.97
2023-03-18T08:14:33.535Z,4.07
2023-03-18T08:17:01.619Z,4.00
2023-03-18T08:19:29.449Z,3.50
2023-03-18T08:21:57.541Z,3.58
2023-03-18T08:24:25.364Z,3.80
2023-03-18T08:26:52.690Z,3.30
2023-03-18T08:29:19.961Z,3.92
2023-03-18T08:31:47.419Z,3.80
2023-03-18T08:34:15.430Z,3.90
2023-03-18T08:36:42.906Z,3.20
2023-03-18T08:39:11.192Z,3.47
2023-03-18T08:41:38.667Z,3.25
2023-03-18T08:44:08.409Z,3.17
2023-03-18T08:46:35.896Z,3.00
2023-03-18T08:49:03.595Z,3.13
2023-03-18T08:51:31.039Z,3.75
2023-03-18T08:53:58.653Z,3.17
2023-03-18T08:56:26.098Z,3.35
2023-03-18T08:58:53.611Z,3.20
2023-03-18T09:01:22.375Z,3.33
2023-03-18T09:03:50.661Z,3.00
2023-03-18T09:06:18.328Z,3.13
2023-03-18T09:08:45.656Z,2.97
2023-03-18T09:11:13.792Z,2.90
2023-03-18T09:13:41.173Z,3.25
2023-03-18T09:16:08.572Z,2.80
2023-03-18T09:18:35.907Z,2.97
2023-03-18T09:21:03.486Z,2.97
2023-03-18T09:23:31.835Z,2.72
2023-03-18T09:25:59.781Z,2.47
2023-03-18T09:28:27.354Z,2.65
2023-03-18T09:30:55.531Z,2.78
2023-03-18T09:33:22.962Z,3.13
2023-03-18T09:35:50.789Z,3.10
2023-03-18T09:38:19.829Z,3.20
2023-03-18T09:40:52.770Z,2.90
2023-03-18T09:43:23.213Z,2.60
2023-03-18T09:46:09.623Z,3.20
2023-03-18T09:48:42.029Z,3.28
2023-03-18T09:51:19.417Z,3.00
2023-03-18T09:53:57.596Z,3.30
2023-03-18T09:56:27.104Z,3.08
2023-03-18T09:59:12.506Z,3.05
2023-03-18T10:01:39.931Z,3.22
2023-03-18T10:04:27.843Z,2.90
2023-03-18T10:07:00.102Z,3.35
2023-03-18T10:09:31.479Z,3.05
2023-03-18T10:12:27.329Z,3.17
2023-03-18T10:15:06.973Z,2.90
2023-03-18T10:17:42.896Z,3.15
2023-03-18T10:20:35.957Z,2.95
2023-03-18T10:23:39.284Z,2.83
2023-03-18T10:26:18.032Z,2.75
2023-03-18T10:29:04.101Z,2.75
2023-03-18T10:31:37.250Z,2.60
2023-03-18T10:34:13.891Z,2.45
2023-03-18T10:37:00.036Z,2.60
2023-03-18T10:39:27.673Z,2.47
2023-03-18T10:41:55.358Z,3.30
2023-03-18T10:44:30.300Z,2.33
2023-03-18T10:47:32.973Z,2.55
2023-03-18T10:50:06.868Z,3.67
2023-03-18T10:52:35.221Z,3.10
2023-03-18T10:55:03.069Z,3.63
2023-03-18T10:57:30.391Z,3.33
2023-03-18T10:59:57.687Z,3.10
2023-03-18T11:02:33.047Z,2.63
2023-03-18T11:05:06.981Z,3.20
2023-03-18T11:07:34.377Z,3.25
2023-03-18T11:10:35.588Z,2.53
2023-03-18T11:13:03.456Z,2.97
2023-03-18T11:15:39.728Z,3.17
2023-03-18T11:18:07.127Z,2.75
2023-03-18T11:20:44.196Z,2.90
2023-03-18T11:23:48.959Z,2.72
2023-03-18T11:26:26.942Z,3.28
2023-03-18T11:28:58.764Z,2.90
2023-03-18T11:31:27.930Z,2.65
2023-03-18T11:33:59.125Z,3.30
2023-03-18T11:36:27.929Z,3.17
2023-03-18T11:39:01.564Z,53.88
2023-03-18T11:41:30.126Z,3.63
2023-03-18T11:44:07.792Z,3.58
2023-03-18T11:46:45.953Z,3.70
2023-03-18T11:49:14.538Z,3.40
2023-03-18T11:52:06.650Z,3.80
2023-03-18T11:54:46.728Z,3.45
2023-03-18T11:57:32.920Z,2.95
2023-03-18T12:00:17.748Z,3.20
2023-03-18T12:05:34.636Z,3.55
2023-03-18T12:08:23.253Z,2.70
2023-03-18T12:11:44.663Z,2.63
2023-03-18T12:14:18.458Z,2.80
2023-03-18T12:16:50.559Z,3.03
2023-03-18T12:19:37.476Z,2.88
2023-03-18T12:22:14.025Z,3.15
2023-03-18T12:25:05.388Z,3.08
2023-03-18T12:27:39.151Z,6.70
2023-03-18T12:30:25.292Z,3.47
2023-03-18T12:32:58.923Z,3.50
2023-03-18T12:35:48.161Z,3.30
2023-03-18T12:38:38.474Z,2.78
2023-03-18T12:41:14.776Z,3.53
2023-03-18T12:44:20.509Z,5.53
2023-03-18T12:46:52.332Z,3.72
2023-03-18T12:49:33.081Z,3.83
2023-03-18T12:52:06.314Z,2.90
2023-03-18T12:55:06.904Z,2.90
2023-03-18T12:57:48.713Z,2.95
2023-03-18T13:00:31.342Z,4.00
2023-03-18T13:03:09.131Z,3.33
2023-03-18T13:05:52.430Z,2.88
2023-03-18T13:08:38.272Z,3.33
2023-03-18T13:11:12.116Z,2.95
2023-03-18T13:13:40.037Z,3.20
2023-03-18T13:16:07.521Z,3.00
2023-03-18T13:18:45.428Z,3.00
2023-03-18T13:21:18.263Z,3.17
2023-03-18T13:24:12.925Z,3.00
2023-03-18T13:27:08.850Z,2.80
2023-03-18T13:29:57.782Z,3.00
2023-03-18T13:32:41.732Z,3.08
2023-03-18T13:35:46.445Z,3.95
2023-03-18T13:38:32.523Z,3.00
2023-03-18T13:41:32.624Z,3.53
2023-03-18T13:44:03.680Z,5.75
2023-03-18T13:46:34.903Z,2.90
2023-03-18T13:49:12.533Z,2.92
2023-03-18T13:51:39.951Z,3.03
2023-03-18T13:54:14.766Z,3.28
2023-03-18T13:56:42.844Z,3.13
2023-03-18T13:59:38.133Z,3.70
2023-03-18T14:02:44.015Z,4.00
2023-03-18T14:05:47.197Z,3.50
2023-03-18T14:08:41.870Z,3.05
2023-03-18T14:11:22.962Z,3.20
2023-03-18T14:13:56.866Z,3.45
2023-03-18T14:16:45.522Z,2.85
2023-03-18T14:19:28.487Z,3.20
2023-03-18T14:22:07.005Z,3.45
2023-03-18T14:24:34.310Z,3.00
2023-03-18T14:27:04.927Z,3.90
2023-03-18T14:29:45.547Z,2.90
2023-03-18T14:32:35.019Z,2.78
2023-03-18T14:35:17.752Z,3.17
2023-03-18T14:38:27.121Z,2.75
2023-03-18T14:40:56.016Z,3.30
2023-03-18T14:43:34.909Z,3.28
2023-03-18T14:46:09.248Z,3.35
2023-03-18T14:48:37.685Z,3.42
2023-03-18T14:51:17.081Z,3.03
2023-03-18T14:53:51.084Z,3.70
2023-03-18T14:56:23.290Z,2.85
2023-03-18T15:02:12.164Z,2.70
2023-03-18T15:04:40.002Z,3.08
2023-03-18T15:07:07.399Z,3.53
2023-03-18T15:09:35.097Z,2.50
2023-03-18T15:12:19.028Z,3.30
2023-03-18T15:14:46.481Z,3.07
2023-03-18T15:17:17.225Z,3.03
2023-03-18T15:19:44.944Z,2.95
2023-03-18T15:22:20.913Z,3.20
2023-03-18T15:24:48.406Z,3.40
2023-03-18T15:27:18.605Z,3.38
2023-03-18T15:29:53.049Z,3.35
2023-03-18T15:32:20.898Z,13.77
2023-03-18T15:34:56.213Z,3.42
2023-03-18T15:37:55.349Z,3.00
2023-03-18T15:40:27.039Z,3.97
2023-03-18T15:42:56.762Z,3.80
2023-03-18T15:45:27.255Z,3.85
2023-03-18T15:47:54.715Z,3.83
2023-03-18T15:50:26.868Z,3.85
2023-03-18T15:53:27.292Z,3.97
2023-03-18T15:55:56.180Z,4.13
2023-03-18T15:58:27.295Z,4.15
2023-03-18T16:00:55.227Z,3.70
2023-03-18T16:03:27.155Z,3.85
2023-03-18T16:05:55.200Z,3.80
2023-03-18T16:08:23.569Z,4.05
2023-03-18T16:10:53.093Z,3.55
2023-03-18T16:13:44.664Z,5.97
2023-03-18T16:16:17.375Z,18.23
2023-03-18T16:18:44.846Z,6.57
2023-03-18T16:21:14.102Z,4.50
2023-03-18T16:23:42.075Z,4.35
2023-03-18T16:26:15.089Z,4.45
2023-03-18T16:28:43.956Z,4.20
2023-03-18T16:31:12.430Z,5.53
2023-03-18T16:33:40.552Z,4.85
2023-03-18T16:36:10.313Z,4.32
2023-03-18T16:38:38.595Z,4.53
2023-03-18T16:41:06.233Z,4.60
2023-03-18T16:43:33.726Z,4.20
2023-03-18T16:46:04.087Z,4.38
2023-03-18T16:48:31.946Z,14.13
2023-03-18T16:51:02.399Z,5.18
2023-03-18T16:53:30.499Z,5.15
2023-03-18T16:56:02.362Z,5.07
2023-03-18T16:58:33.611Z,4.28
2023-03-18T17:01:01.767Z,4.60
2023-03-18T17:03:29.997Z,3.53
2023-03-18T17:05:57.403Z,4.55
2023-03-18T17:08:24.896Z,4.70
2023-03-18T17:10:54.550Z,3.70
2023-03-18T17:13:24.104Z,3.05
2023-03-18T17:15:51.516Z,5.65
2023-03-18T17:18:20.669Z,5.60
2023-03-18T17:20:48.203Z,5.50
2023-03-18T17:23:17.332Z,5.38
2023-03-18T17:25:55.343Z,5.63
2023-03-18T17:28:34.580Z,5.55
2023-03-18T17:31:02.999Z,5.47
2023-03-18T17:33:32.090Z,5.65
2023-03-18T17:36:01.460Z,5.65
2023-03-18T17:38:30.689Z,5.50
2023-03-18T17:40:58.785Z,5.32
2023-03-18T17:43:30.848Z,4.97
2023-03-18T17:45:58.576Z,5.60
2023-03-18T17:48:27.462Z,5.45
2023-03-18T17:50:56.483Z,5.20
2023-03-18T17:53:28.332Z,7.05
2023-03-18T17:55:55.901Z,6.30
2023-03-18T17:58:26.042Z,6.50
2023-03-18T18:00:54.079Z,6.97
2023-03-18T18:03:28.709Z,10.10
2023-03-18T18:05:56.482Z,7.80
2023-03-18T18:08:25.426Z,9.07
2023-03-18T18:10:54.499Z,7.60
2023-03-18T18:13:22.707Z,23.02
2023-03-18T18:15:51.081Z,17.75
2023-03-18T18:18:26.613Z,14.80
2023-03-18T18:21:04.116Z,12.52
2023-03-18T18:23:35.727Z,9.40
2023-03-18T18:26:05.358Z,9.85
2023-03-18T18:28:34.360Z,8.20
2023-03-18T18:31:02.986Z,7.95
2023-03-18T18:33:31.194Z,7.05
2023-03-18T18:35:58.764Z,7.45
2023-03-18T18:38:26.077Z,7.18
2023-03-18T18:40:54.075Z,7.25
2023-03-18T18:43:21.885Z,7.70
2023-03-18T18:45:49.772Z,7.85
2023-03-18T18:48:17.833Z,7.88
2023-03-18T18:50:45.561Z,7.80
2023-03-18T18:53:22.232Z,6.88
2023-03-18T18:55:49.787Z,7.35
2023-03-18T18:58:19.340Z,8.65
2023-03-18T19:00:47.179Z,8.13
2023-03-18T19:03:16.105Z,8.57
2023-03-18T19:05:44.358Z,9.32
2023-03-18T19:08:36.672Z,9.23
2023-03-18T19:11:05.634Z,9.13
2023-03-18T19:13:34.244Z,9.48
2023-03-18T19:16:07.205Z,9.15
2023-03-18T19:18:38.526Z,9.88
2023-03-18T19:21:06.868Z,10.90
2023-03-18T19:23:34.795Z,11.20
2023-03-18T19:26:03.018Z,11.05
2023-03-18T19:29:03.879Z,11.93
2023-03-18T19:31:32.265Z,14.68
2023-03-18T19:34:00.474Z,11.70
2023-03-18T19:36:32.458Z,9.68
2023-03-18T19:39:01.190Z,11.25
2023-03-18T19:41:28.906Z,9.60
2023-03-18T19:44:04.194Z,10.77
2023-03-18T19:46:37.066Z,9.55
2023-03-18T19:49:35.209Z,9.82
2023-03-18T19:52:03.135Z,10.20
2023-03-18T19:54:36.983Z,9.85
2023-03-18T19:57:19.949Z,9.38
2023-03-18T19:59:48.543Z,9.43
2023-03-18T20:02:26.759Z,10.52
2023-03-18T20:04:58.886Z,8.90
2023-03-18T20:07:30.929Z,9.18
2023-03-18T20:09:58.338Z,9.23
2023-03-18T20:12:33.326Z,9.05
2023-03-18T20:15:00.935Z,8.80
2023-03-18T20:17:32.497Z,8.82
2023-03-18T20:19:59.869Z,8.27
2023-03-18T20:22:30.397Z,8.75
2023-03-18T20:24:57.762Z,8.57
2023-03-18T20:27:25.210Z,7.80
2023-03-18T20:29:52.576Z,8.43
2023-03-18T20:32:19.925Z,7.88
2023-03-18T20:34:48.425Z,7.78
2023-03-18T20:37:33.517Z,12.35
2023-03-18T20:40:04.696Z,9.30
2023-03-18T20:42:34.614Z,9.13
2023-03-18T20:45:02.097Z,8.98
2023-03-18T20:47:29.580Z,11.10
2023-03-18T20:49:57.186Z,9.35
2023-03-18T20:52:28.825Z,9.70
2023-03-18T20:54:59.470Z,10.05
2023-03-18T20:57:27.422Z,11.10
2023-03-18T20:59:54.777Z,10.43
2023-03-18T21:02:32.721Z,8.70
2023-03-18T21:05:01.053Z,12.07
2023-03-18T21:07:28.506Z,10.98
2023-03-18T21:09:55.882Z,11.32
2023-03-18T21:12:23.619Z,11.82
2023-03-18T21:14:51.120Z,10.57
2023-03-18T21:17:23.824Z,10.43
2023-03-18T21:19:52.006Z,10.65
2023-03-18T21:22:27.626Z,9.60
2023-03-18T21:24:55.212Z,10.88
2023-03-18T21:27:24.460Z,12.23
2023-03-18T21:29:52.360Z,11.93
2023-03-18T21:32:24.069Z,11.00
2023-03-18T21:34:52.660Z,11.73
2023-03-18T21:37:21.336Z,11.57
2023-03-18T21:39:49.163Z,11.18
2023-03-18T21:42:18.212Z,9.95
2023-03-18T21:44:45.633Z,10.27
2023-03-18T21:47:14.675Z,12.98
2023-03-18T21:49:42.810Z,12.18
2023-03-18T21:52:21.084Z,10.80
2023-03-18T21:54:48.497Z,11.45
2023-03-18T21:57:19.674Z,10.10
2023-03-18T21:59:47.143Z,14.15
2023-03-18T22:02:25.206Z,10.82
2023-03-18T22:04:53.041Z,9.82
2023-03-18T22:07:23.113Z,11.40
2023-03-18T22:09:51.275Z,10.50
2023-03-18T22:12:30.421Z,10.48
2023-03-18T22:14:57.935Z,11.55
2023-03-18T22:17:26.266Z,12.00
2023-03-18T22:19:54.180Z,11.63
2023-03-18T22:22:23.293Z,10.25
2023-03-18T22:24:51.247Z,11.82
2023-03-18T22:27:21.662Z,11.63
2023-03-18T22:29:49.624Z,13.32
2023-03-18T22:32:32.751Z,13.73
2023-03-18T22:35:00.287Z,13.68
2023-03-18T22:37:27.676Z,13.15
2023-03-18T22:39:55.079Z,13.05
2023-03-18T22:42:23.773Z,12.98
2023-03-18T22:44:51.419Z,15.05
2023-03-18T22:47:23.571Z,14.50
2023-03-18T22:49:51.219Z,16.35
2023-03-18T22:52:31.039Z,12.85
2023-03-18T22:55:00.100Z,10.77
2023-03-18T22:57:27.849Z,10.35
2023-03-18T22:59:56.276Z,10.45
2023-03-18T23:02:25.575Z,11.98
2023-03-18T23:04:54.180Z,11.20
2023-03-18T23:07:26.726Z,10.93
2023-03-18T23:09:57.470Z,11.95
2023-03-18T23:12:25.877Z,12.75
2023-03-18T23:14:53.248Z,11.68
2023-03-18T23:17:25.730Z,11.02
2023-03-18T23:19:53.549Z,11.25
2023-03-18T23:22:41.341Z,12.10
2023-03-18T23:25:12.371Z,11.88
2023-03-18T23:27:39.679Z,12.00
2023-03-18T23:30:07.579Z,11.45
2023-03-18T23:32:35.382Z,11.85
2023-03-18T23:35:02.805Z,12.05
2023-03-18T23:37:30.212Z,12.60
2023-03-18T23:39:57.510Z,12.43
2023-03-18T23:42:24.841Z,11.95
2023-03-18T23:44:52.136Z,11.65
2023-03-18T23:47:19.476Z,11.73
2023-03-18T23:49:46.782Z,12.43
2023-03-18T23:52:14.759Z,11.05
2023-03-18T23:54:42.179Z,11.35
2023-03-18T23:57:10.566Z,10.90
2023-03-18T23:59:38.029Z,11.50
